sensor_id;sensor_type;location;lat;lon;timestamp;pressure;altitude;pressure_sealevel;temperature;humidity
18900;BME280;9582;52.018;6.306;2023-02-14T00:01:11;103378.25;;;2.24;100.00
18900;BME280;9582;52.018;6.306;2023-02-14T00:03:40;103384.50;;;2.32;100.00
18900;BME280;9582;52.018;6.306;2023-02-14T00:06:08;103383.19;;;2.47;100.00
18900;BME280;9582;52.018;6.306;2023-02-14T00:08:37;103387.88;;;2.60;100.00
18900;BME280;9582;52.018;6.306;2023-02-14T00:11:09;103375.94;;;2.63;100.00
18900;BME280;9582;52.018;6.306;2023-02-14T00:13:37;103383.38;;;2.53;100.00
18900;BME280;9582;52.018;6.306;2023-02-14T00:16:24;103381.06;;;2.62;100.00
18900;BME280;9582;52.018;6.306;2023-02-14T00:18:52;103387.03;;;2.59;100.00
18900;BME280;9582;52.018;6.306;2023-02-14T00:21:41;103379.00;;;2.50;100.00
18900;BME280;9582;52.018;6.306;2023-02-14T00:24:15;103376.84;;;2.36;100.00
18900;BME280;9582;52.018;6.306;2023-02-14T00:26:48;103381.69;;;2.25;100.00
18900;BME280;9582;52.018;6.306;2023-02-14T00:29:22;103381.00;;;2.30;100.00
18900;BME280;9582;52.018;6.306;2023-02-14T00:31:49;103382.00;;;2.34;100.00
18900;BME280;9582;52.018;6.306;2023-02-14T00:34:16;103377.41;;;2.25;100.00
18900;BME280;9582;52.018;6.306;2023-02-14T00:36:45;103376.38;;;2.20;100.00
18900;BME280;9582;52.018;6.306;2023-02-14T00:39:19;103369.63;;;2.24;100.00
18900;BME280;9582;52.018;6.306;2023-02-14T00:41:47;103367.25;;;2.31;100.00
18900;BME280;9582;52.018;6.306;2023-02-14T00:44:22;103367.13;;;2.27;100.00
18900;BME280;9582;52.018;6.306;2023-02-14T00:46:51;103368.97;;;2.31;100.00
18900;BME280;9582;52.018;6.306;2023-02-14T00:49:22;103365.31;;;2.23;100.00
18900;BME280;9582;52.018;6.306;2023-02-14T00:51:51;103366.81;;;2.16;100.00
18900;BME280;9582;52.018;6.306;2023-02-14T00:54:19;103373.63;;;2.14;100.00
18900;BME280;9582;52.018;6.306;2023-02-14T00:56:51;103367.63;;;2.15;100.00
18900;BME280;9582;52.018;6.306;2023-02-14T00:59:24;103363.94;;;2.07;100.00
18900;BME280;9582;52.018;6.306;2023-02-14T01:01:50;103364.34;;;2.21;100.00
18900;BME280;9582;52.018;6.306;2023-02-14T01:04:30;103365.38;;;2.26;100.00
18900;BME280;9582;52.018;6.306;2023-02-14T01:06:57;103364.13;;;2.13;100.00
18900;BME280;9582;52.018;6.306;2023-02-14T01:09:24;103367.91;;;1.96;100.00
18900;BME280;9582;52.018;6.306;2023-02-14T01:11:58;103368.72;;;1.95;100.00
18900;BME280;9582;52.018;6.306;2023-02-14T01:14:26;103369.28;;;1.85;100.00
18900;BME280;9582;52.018;6.306;2023-02-14T01:16:57;103370.56;;;1.99;100.00
18900;BME280;9582;52.018;6.306;2023-02-14T01:19:29;103369.56;;;1.94;100.00
18900;BME280;9582;52.018;6.306;2023-02-14T01:21:55;103368.53;;;1.89;100.00
18900;BME280;9582;52.018;6.306;2023-02-14T01:24:22;103375.91;;;1.77;100.00
18900;BME280;9582;52.018;6.306;2023-02-14T01:26:53;103368.00;;;1.72;100.00
18900;BME280;9582;52.018;6.306;2023-02-14T01:29:24;103370.56;;;1.72;100.00
18900;BME280;9582;52.018;6.306;2023-02-14T01:31:52;103376.56;;;1.71;100.00
18900;BME280;9582;52.018;6.306;2023-02-14T01:34:24;103377.16;;;1.63;100.00
18900;BME280;9582;52.018;6.306;2023-02-14T01:36:54;103374.50;;;1.61;100.00
18900;BME280;9582;52.018;6.306;2023-02-14T01:39:23;103372.19;;;1.69;100.00
18900;BME280;9582;52.018;6.306;2023-02-14T01:41:53;103373.13;;;1.71;100.00
18900;BME280;9582;52.018;6.306;2023-02-14T01:44:55;103376.56;;;1.71;100.00
18900;BME280;9582;52.018;6.306;2023-02-14T01:47:25;103367.59;;;1.87;100.00
18900;BME280;9582;52.018;6.306;2023-02-14T01:50:07;103376.72;;;1.76;100.00
18900;BME280;9582;52.018;6.306;2023-02-14T01:52:44;103379.97;;;1.70;100.00
18900;BME280;9582;52.018;6.306;2023-02-14T01:55:20;103374.59;;;1.64;100.00
18900;BME280;9582;52.018;6.306;2023-02-14T01:57:53;103373.06;;;1.44;100.00
18900;BME280;9582;52.018;6.306;2023-02-14T02:00:22;103369.78;;;1.48;100.00
18900;BME280;9582;52.018;6.306;2023-02-14T02:03:13;103373.25;;;1.49;100.00
18900;BME280;9582;52.018;6.306;2023-02-14T02:05:48;103364.19;;;1.35;100.00
18900;BME280;9582;52.018;6.306;2023-02-14T02:08:30;103364.53;;;1.45;100.00
18900;BME280;9582;52.018;6.306;2023-02-14T02:10:59;103361.63;;;1.36;100.00
18900;BME280;9582;52.018;6.306;2023-02-14T02:13:33;103366.19;;;1.43;100.00
18900;BME280;9582;52.018;6.306;2023-02-14T02:16:13;103366.41;;;1.24;100.00
18900;BME280;9582;52.018;6.306;2023-02-14T02:19:08;103363.53;;;1.16;100.00
18900;BME280;9582;52.018;6.306;2023-02-14T02:22:04;103353.03;;;1.10;100.00
18900;BME280;9582;52.018;6.306;2023-02-14T02:24:45;103352.91;;;1.07;100.00
18900;BME280;9582;52.018;6.306;2023-02-14T02:27:59;103357.59;;;0.94;100.00
18900;BME280;9582;52.018;6.306;2023-02-14T02:31:08;103350.47;;;0.87;100.00
18900;BME280;9582;52.018;6.306;2023-02-14T02:33:53;103352.19;;;0.86;100.00
18900;BME280;9582;52.018;6.306;2023-02-14T02:36:47;103347.78;;;0.84;100.00
18900;BME280;9582;52.018;6.306;2023-02-14T02:39:30;103345.03;;;0.79;100.00
18900;BME280;9582;52.018;6.306;2023-02-14T02:42:05;103340.28;;;0.90;100.00
18900;BME280;9582;52.018;6.306;2023-02-14T02:44:48;103334.25;;;0.89;100.00
18900;BME280;9582;52.018;6.306;2023-02-14T02:47:21;103336.84;;;0.89;100.00
18900;BME280;9582;52.018;6.306;2023-02-14T02:49:55;103332.72;;;0.94;100.00
18900;BME280;9582;52.018;6.306;2023-02-14T02:52:47;103336.66;;;0.85;100.00
18900;BME280;9582;52.018;6.306;2023-02-14T02:55:43;103339.81;;;0.76;100.00
18900;BME280;9582;52.018;6.306;2023-02-14T02:58:34;103333.72;;;0.74;100.00
18900;BME280;9582;52.018;6.306;2023-02-14T03:01:08;103332.78;;;0.72;100.00
18900;BME280;9582;52.018;6.306;2023-02-14T03:03:36;103331.56;;;0.63;100.00
18900;BME280;9582;52.018;6.306;2023-02-14T03:06:30;103325.47;;;0.59;100.00
18900;BME280;9582;52.018;6.306;2023-02-14T03:09:10;103332.69;;;0.69;100.00
18900;BME280;9582;52.018;6.306;2023-02-14T03:11:43;103336.38;;;0.77;100.00
18900;BME280;9582;52.018;6.306;2023-02-14T03:14:18;103343.34;;;0.80;100.00
18900;BME280;9582;52.018;6.306;2023-02-14T03:17:03;103334.75;;;0.79;100.00
18900;BME280;9582;52.018;6.306;2023-02-14T03:19:52;103332.56;;;0.66;100.00
18900;BME280;9582;52.018;6.306;2023-02-14T03:22:48;103340.56;;;0.50;100.00
18900;BME280;9582;52.018;6.306;2023-02-14T03:25:33;103336.59;;;0.59;100.00
18900;BME280;9582;52.018;6.306;2023-02-14T03:28:13;103335.88;;;0.62;100.00
18900;BME280;9582;52.018;6.306;2023-02-14T03:30:55;103333.19;;;0.59;100.00
18900;BME280;9582;52.018;6.306;2023-02-14T03:33:30;103337.47;;;0.60;100.00
18900;BME280;9582;52.018;6.306;2023-02-14T03:36:04;103341.75;;;0.59;100.00
18900;BME280;9582;52.018;6.306;2023-02-14T03:38:38;103329.50;;;0.52;100.00
18900;BME280;9582;52.018;6.306;2023-02-14T03:41:12;103327.56;;;0.47;100.00
18900;BME280;9582;52.018;6.306;2023-02-14T03:43:43;103331.81;;;0.45;100.00
18900;BME280;9582;52.018;6.306;2023-02-14T03:46:17;103331.91;;;0.48;100.00
18900;BME280;9582;52.018;6.306;2023-02-14T03:48:46;103333.00;;;0.54;100.00
18900;BME280;9582;52.018;6.306;2023-02-14T03:51:17;103328.06;;;0.61;100.00
18900;BME280;9582;52.018;6.306;2023-02-14T03:53:47;103331.53;;;0.61;100.00
18900;BME280;9582;52.018;6.306;2023-02-14T03:56:28;103331.13;;;0.74;100.00
18900;BME280;9582;52.018;6.306;2023-02-14T03:59:04;103331.13;;;0.74;100.00
18900;BME280;9582;52.018;6.306;2023-02-14T04:01:35;103334.84;;;0.82;100.00
18900;BME280;9582;52.018;6.306;2023-02-14T04:04:09;103329.19;;;0.67;100.00
18900;BME280;9582;52.018;6.306;2023-02-14T04:06:41;103332.44;;;0.63;100.00
18900;BME280;9582;52.018;6.306;2023-02-14T04:09:10;103323.69;;;0.58;100.00
18900;BME280;9582;52.018;6.306;2023-02-14T04:11:42;103329.72;;;0.58;100.00
18900;BME280;9582;52.018;6.306;2023-02-14T04:14:12;103329.00;;;0.63;100.00
18900;BME280;9582;52.018;6.306;2023-02-14T04:16:44;103331.53;;;0.61;100.00
18900;BME280;9582;52.018;6.306;2023-02-14T04:19:28;103328.72;;;0.55;100.00
18900;BME280;9582;52.018;6.306;2023-02-14T04:21:56;103330.41;;;0.54;100.00
18900;BME280;9582;52.018;6.306;2023-02-14T04:24:22;103331.25;;;0.77;100.00
18900;BME280;9582;52.018;6.306;2023-02-14T04:26:52;103329.28;;;0.70;100.00
18900;BME280;9582;52.018;6.306;2023-02-14T04:29:41;103327.63;;;0.72;100.00
18900;BME280;9582;52.018;6.306;2023-02-14T04:32:12;103323.91;;;0.64;100.00
18900;BME280;9582;52.018;6.306;2023-02-14T04:34:42;103328.75;;;0.56;100.00
18900;BME280;9582;52.018;6.306;2023-02-14T04:37:12;103331.41;;;0.58;100.00
18900;BME280;9582;52.018;6.306;2023-02-14T04:39:50;103322.91;;;0.61;100.00
18900;BME280;9582;52.018;6.306;2023-02-14T04:42:22;103324.84;;;0.66;100.00
18900;BME280;9582;52.018;6.306;2023-02-14T04:44:51;103328.28;;;0.67;100.00
18900;BME280;9582;52.018;6.306;2023-02-14T04:47:24;103323.03;;;0.64;100.00
18900;BME280;9582;52.018;6.306;2023-02-14T04:49:52;103321.38;;;0.66;100.00
18900;BME280;9582;52.018;6.306;2023-02-14T04:52:19;103322.78;;;0.56;100.00
18900;BME280;9582;52.018;6.306;2023-02-14T04:54:48;103313.44;;;0.59;100.00
18900;BME280;9582;52.018;6.306;2023-02-14T04:57:25;103306.41;;;0.79;100.00
18900;BME280;9582;52.018;6.306;2023-02-14T04:59:54;103313.56;;;0.88;100.00
18900;BME280;9582;52.018;6.306;2023-02-14T05:02:20;103309.28;;;0.87;100.00
18900;BME280;9582;52.018;6.306;2023-02-14T05:04:49;103312.00;;;0.91;100.00
18900;BME280;9582;52.018;6.306;2023-02-14T05:07:20;103309.41;;;0.91;100.00
18900;BME280;9582;52.018;6.306;2023-02-14T05:09:51;103306.94;;;0.94;100.00
18900;BME280;9582;52.018;6.306;2023-02-14T05:12:26;103302.94;;;1.02;100.00
18900;BME280;9582;52.018;6.306;2023-02-14T05:14:54;103310.06;;;1.09;100.00
18900;BME280;9582;52.018;6.306;2023-02-14T05:17:24;103304.03;;;1.09;100.00
18900;BME280;9582;52.018;6.306;2023-02-14T05:19:53;103302.72;;;0.96;100.00
18900;BME280;9582;52.018;6.306;2023-02-14T05:22:20;103301.53;;;0.87;100.00
18900;BME280;9582;52.018;6.306;2023-02-14T05:24:46;103298.28;;;0.67;100.00
18900;BME280;9582;52.018;6.306;2023-02-14T05:27:15;103298.06;;;0.61;100.00
18900;BME280;9582;52.018;6.306;2023-02-14T05:29:46;103284.81;;;0.50;100.00
18900;BME280;9582;52.018;6.306;2023-02-14T05:32:18;103290.94;;;0.30;100.00
18900;BME280;9582;52.018;6.306;2023-02-14T05:34:56;103293.28;;;0.24;100.00
18900;BME280;9582;52.018;6.306;2023-02-14T05:37:27;103288.91;;;0.22;100.00
18900;BME280;9582;52.018;6.306;2023-02-14T05:40:04;103283.69;;;0.20;100.00
18900;BME280;9582;52.018;6.306;2023-02-14T05:42:33;103290.22;;;0.34;100.00
18900;BME280;9582;52.018;6.306;2023-02-14T05:45:02;103287.94;;;0.42;100.00
18900;BME280;9582;52.018;6.306;2023-02-14T05:47:31;103292.41;;;0.24;100.00
18900;BME280;9582;52.018;6.306;2023-02-14T05:50:03;103293.88;;;0.41;100.00
18900;BME280;9582;52.018;6.306;2023-02-14T05:52:31;103297.28;;;0.40;100.00
18900;BME280;9582;52.018;6.306;2023-02-14T05:55:03;103299.06;;;0.42;100.00
18900;BME280;9582;52.018;6.306;2023-02-14T05:57:33;103291.31;;;0.41;100.00
18900;BME280;9582;52.018;6.306;2023-02-14T06:00:07;103291.47;;;0.45;100.00
18900;BME280;9582;52.018;6.306;2023-02-14T06:02:40;103298.72;;;0.55;100.00
18900;BME280;9582;52.018;6.306;2023-02-14T06:05:18;103298.38;;;0.46;100.00
18900;BME280;9582;52.018;6.306;2023-02-14T06:07:47;103296.06;;;0.54;100.00
18900;BME280;9582;52.018;6.306;2023-02-14T06:10:25;103296.19;;;0.81;100.00
18900;BME280;9582;52.018;6.306;2023-02-14T06:12:56;103300.09;;;0.70;100.00
18900;BME280;9582;52.018;6.306;2023-02-14T06:15:27;103303.53;;;0.70;100.00
18900;BME280;9582;52.018;6.306;2023-02-14T06:17:54;103296.63;;;0.69;100.00
18900;BME280;9582;52.018;6.306;2023-02-14T06:20:22;103298.06;;;0.61;100.00
18900;BME280;9582;52.018;6.306;2023-02-14T06:22:51;103297.50;;;0.46;100.00
18900;BME280;9582;52.018;6.306;2023-02-14T06:25:24;103304.94;;;0.38;100.00
18900;BME280;9582;52.018;6.306;2023-02-14T06:27:54;103296.56;;;0.44;100.00
18900;BME280;9582;52.018;6.306;2023-02-14T06:30:31;103297.06;;;0.34;100.00
18900;BME280;9582;52.018;6.306;2023-02-14T06:33:00;103294.28;;;0.28;100.00
18900;BME280;9582;52.018;6.306;2023-02-14T06:35:31;103298.69;;;0.32;100.00
18900;BME280;9582;52.018;6.306;2023-02-14T06:38:08;103298.44;;;0.24;100.00
18900;BME280;9582;52.018;6.306;2023-02-14T06:40:37;103310.88;;;0.36;100.00
18900;BME280;9582;52.018;6.306;2023-02-14T06:43:08;103306.59;;;0.36;100.00
18900;BME280;9582;52.018;6.306;2023-02-14T06:45:41;103314.13;;;0.32;100.00
18900;BME280;9582;52.018;6.306;2023-02-14T06:48:12;103320.69;;;0.24;100.00
18900;BME280;9582;52.018;6.306;2023-02-14T06:50:42;103311.94;;;0.19;100.00
18900;BME280;9582;52.018;6.306;2023-02-14T06:53:14;103317.31;;;0.25;100.00
18900;BME280;9582;52.018;6.306;2023-02-14T06:55:42;103318.13;;;0.24;100.00
18900;BME280;9582;52.018;6.306;2023-02-14T06:58:09;103325.72;;;0.21;100.00
18900;BME280;9582;52.018;6.306;2023-02-14T07:00:41;103319.69;;;0.20;100.00
18900;BME280;9582;52.018;6.306;2023-02-14T07:03:08;103331.75;;;0.21;100.00
18900;BME280;9582;52.018;6.306;2023-02-14T07:05:35;103327.50;;;0.22;100.00
18900;BME280;9582;52.018;6.306;2023-02-14T07:08:01;103321.59;;;0.24;100.00
18900;BME280;9582;52.018;6.306;2023-02-14T07:10:28;103329.75;;;0.36;100.00
18900;BME280;9582;52.018;6.306;2023-02-14T07:12:54;103329.69;;;0.35;100.00
18900;BME280;9582;52.018;6.306;2023-02-14T07:15:28;103323.25;;;0.46;100.00
18900;BME280;9582;52.018;6.306;2023-02-14T07:17:56;103327.84;;;0.54;100.00
18900;BME280;9582;52.018;6.306;2023-02-14T07:20:23;103328.94;;;0.61;100.00
18900;BME280;9582;52.018;6.306;2023-02-14T07:22:55;103331.09;;;0.73;100.00
18900;BME280;9582;52.018;6.306;2023-02-14T07:25:22;103344.34;;;0.83;100.00
18900;BME280;9582;52.018;6.306;2023-02-14T07:27:51;103337.50;;;0.84;100.00
18900;BME280;9582;52.018;6.306;2023-02-14T07:30:24;103339.66;;;0.97;100.00
18900;BME280;9582;52.018;6.306;2023-02-14T07:32:56;103336.63;;;1.08;100.00
18900;BME280;9582;52.018;6.306;2023-02-14T07:35:25;103353.03;;;1.10;100.00
18900;BME280;9582;52.018;6.306;2023-02-14T07:37:51;103344.63;;;1.16;100.00
18900;BME280;9582;52.018;6.306;2023-02-14T07:40:19;103347.19;;;1.16;100.00
18900;BME280;9582;52.018;6.306;2023-02-14T07:42:57;103335.97;;;1.14;100.00
18900;BME280;9582;52.018;6.306;2023-02-14T07:45:25;103341.28;;;1.19;100.00
18900;BME280;9582;52.018;6.306;2023-02-14T07:47:53;103337.09;;;1.22;100.00
18900;BME280;9582;52.018;6.306;2023-02-14T07:50:28;103340.88;;;1.32;100.00
18900;BME280;9582;52.018;6.306;2023-02-14T07:52:55;103335.19;;;1.42;100.00
18900;BME280;9582;52.018;6.306;2023-02-14T07:55:22;103335.72;;;1.58;100.00
18900;BME280;9582;52.018;6.306;2023-02-14T07:57:55;103342.88;;;1.67;100.00
18900;BME280;9582;52.018;6.306;2023-02-14T08:00:25;103344.16;;;1.80;100.00
18900;BME280;9582;52.018;6.306;2023-02-14T08:02:54;103343.25;;;1.78;100.00
18900;BME280;9582;52.018;6.306;2023-02-14T08:05:21;103339.03;;;1.81;100.00
18900;BME280;9582;52.018;6.306;2023-02-14T08:07:51;103340.91;;;1.87;100.00
18900;BME280;9582;52.018;6.306;2023-02-14T08:10:18;103334.97;;;2.17;100.00
18900;BME280;9582;52.018;6.306;2023-02-14T08:12:48;103332.97;;;2.36;100.00
18900;BME280;9582;52.018;6.306;2023-02-14T08:15:27;103333.03;;;2.39;100.00
18900;BME280;9582;52.018;6.306;2023-02-14T08:18:11;103326.47;;;2.50;100.00
18900;BME280;9582;52.018;6.306;2023-02-14T08:20:43;103326.03;;;2.64;100.00
18900;BME280;9582;52.018;6.306;2023-02-14T08:23:17;103320.41;;;2.79;100.00
18900;BME280;9582;52.018;6.306;2023-02-14T08:25:53;103321.34;;;2.82;100.00
18900;BME280;9582;52.018;6.306;2023-02-14T08:28:20;103314.13;;;3.02;100.00
18900;BME280;9582;52.018;6.306;2023-02-14T08:30:56;103316.22;;;3.15;100.00
18900;BME280;9582;52.018;6.306;2023-02-14T08:33:26;103310.19;;;3.16;100.00
18900;BME280;9582;52.018;6.306;2023-02-14T08:35:57;103314.13;;;3.35;100.00
18900;BME280;9582;52.018;6.306;2023-02-14T08:38:31;103313.66;;;3.51;100.00
18900;BME280;9582;52.018;6.306;2023-02-14T08:41:03;103320.84;;;3.63;100.00
18900;BME280;9582;52.018;6.306;2023-02-14T08:43:34;103321.19;;;3.78;100.00
18900;BME280;9582;52.018;6.306;2023-02-14T08:46:01;103321.38;;;3.85;100.00
18900;BME280;9582;52.018;6.306;2023-02-14T08:48:33;103328.53;;;3.97;100.00
18900;BME280;9582;52.018;6.306;2023-02-14T08:51:19;103321.66;;;3.99;100.00
18900;BME280;9582;52.018;6.306;2023-02-14T08:53:48;103324.00;;;4.27;100.00
18900;BME280;9582;52.018;6.306;2023-02-14T08:56:21;103326.53;;;4.24;100.00
18900;BME280;9582;52.018;6.306;2023-02-14T08:58:57;103316.38;;;4.33;100.00
18900;BME280;9582;52.018;6.306;2023-02-14T09:01:28;103321.75;;;4.42;100.00
18900;BME280;9582;52.018;6.306;2023-02-14T09:03:57;103323.88;;;4.63;100.00
18900;BME280;9582;52.018;6.306;2023-02-14T09:06:24;103318.69;;;4.61;100.00
18900;BME280;9582;52.018;6.306;2023-02-14T09:09:00;103319.81;;;4.76;100.00
18900;BME280;9582;52.018;6.306;2023-02-14T09:11:32;103321.88;;;4.93;100.00
18900;BME280;9582;52.018;6.306;2023-02-14T09:14:04;103326.47;;;5.08;100.00
18900;BME280;9582;52.018;6.306;2023-02-14T09:16:41;103325.00;;;5.22;100.00
18900;BME280;9582;52.018;6.306;2023-02-14T09:19:08;103316.47;;;5.31;100.00
18900;BME280;9582;52.018;6.306;2023-02-14T09:21:35;103318.44;;;5.45;100.00
18900;BME280;9582;52.018;6.306;2023-02-14T09:24:06;103313.41;;;5.53;100.00
18900;BME280;9582;52.018;6.306;2023-02-14T09:26:40;103316.94;;;5.58;100.00
18900;BME280;9582;52.018;6.306;2023-02-14T09:29:09;103310.09;;;5.63;100.00
18900;BME280;9582;52.018;6.306;2023-02-14T09:31:37;103304.25;;;5.77;100.00
18900;BME280;9582;52.018;6.306;2023-02-14T09:34:03;103307.91;;;5.89;100.00
18900;BME280;9582;52.018;6.306;2023-02-14T09:36:30;103301.91;;;5.93;100.00
18900;BME280;9582;52.018;6.306;2023-02-14T09:39:04;103297.69;;;6.01;100.00
18900;BME280;9582;52.018;6.306;2023-02-14T09:41:59;103293.59;;;6.18;100.00
18900;BME280;9582;52.018;6.306;2023-02-14T09:44:33;103295.50;;;6.31;100.00
18900;BME280;9582;52.018;6.306;2023-02-14T09:47:13;103292.97;;;6.37;100.00
18900;BME280;9582;52.018;6.306;2023-02-14T09:49:49;103289.66;;;6.50;100.00
18900;BME280;9582;52.018;6.306;2023-02-14T09:52:25;103285.50;;;6.66;100.00
18900;BME280;9582;52.018;6.306;2023-02-14T09:55:00;103282.91;;;6.67;100.00
18900;BME280;9582;52.018;6.306;2023-02-14T09:57:35;103284.75;;;6.80;100.00
18900;BME280;9582;52.018;6.306;2023-02-14T10:00:19;103283.13;;;6.88;100.00
18900;BME280;9582;52.018;6.306;2023-02-14T10:02:55;103281.47;;;6.96;100.00
18900;BME280;9582;52.018;6.306;2023-02-14T10:05:25;103281.53;;;7.06;100.00
18900;BME280;9582;52.018;6.306;2023-02-14T10:08:07;103284.28;;;7.19;100.00
18900;BME280;9582;52.018;6.306;2023-02-14T10:10:39;103288.75;;;7.37;100.00
18900;BME280;9582;52.018;6.306;2023-02-14T10:13:13;103281.00;;;7.41;100.00
18900;BME280;9582;52.018;6.306;2023-02-14T10:15:44;103284.50;;;7.49;100.00
18900;BME280;9582;52.018;6.306;2023-02-14T10:18:13;103274.06;;;7.48;100.00
18900;BME280;9582;52.018;6.306;2023-02-14T10:20:43;103278.50;;;7.58;100.00
18900;BME280;9582;52.018;6.306;2023-02-14T10:23:26;103279.44;;;7.71;100.00
18900;BME280;9582;52.018;6.306;2023-02-14T10:26:00;103276.03;;;7.82;100.00
18900;BME280;9582;52.018;6.306;2023-02-14T10:28:34;103269.97;;;7.80;100.00
18900;BME280;9582;52.018;6.306;2023-02-14T10:46:02;103263.38;;;8.55;100.00
18900;BME280;9582;52.018;6.306;2023-02-14T10:48:41;103271.19;;;8.62;100.00
18900;BME280;9582;52.018;6.306;2023-02-14T10:51:26;103271.19;;;8.70;100.00
18900;BME280;9582;52.018;6.306;2023-02-14T10:54:11;103274.69;;;8.70;100.00
18900;BME280;9582;52.018;6.306;2023-02-14T10:56:47;103273.84;;;8.72;100.00
18900;BME280;9582;52.018;6.306;2023-02-14T10:59:19;103270.34;;;8.82;100.00
18900;BME280;9582;52.018;6.306;2023-02-14T11:01:53;103270.38;;;8.92;100.00
18900;BME280;9582;52.018;6.306;2023-02-14T11:04:22;103271.25;;;9.02;100.00
18900;BME280;9582;52.018;6.306;2023-02-14T11:06:51;103258.19;;;9.06;100.00
18900;BME280;9582;52.018;6.306;2023-02-14T11:09:20;103264.31;;;9.08;100.00
18900;BME280;9582;52.018;6.306;2023-02-14T11:11:50;103245.16;;;9.12;100.00
18900;BME280;9582;52.018;6.306;2023-02-14T11:14:24;103251.25;;;9.11;100.00
18900;BME280;9582;52.018;6.306;2023-02-14T11:16:59;103246.00;;;9.17;100.00
18900;BME280;9582;52.018;6.306;2023-02-14T11:19:37;103240.81;;;9.25;100.00
18900;BME280;9582;52.018;6.306;2023-02-14T11:22:04;103232.97;;;9.33;100.00
18900;BME280;9582;52.018;6.306;2023-02-14T11:24:36;103239.03;;;9.35;100.00
18900;BME280;9582;52.018;6.306;2023-02-14T11:27:13;103234.69;;;9.50;100.00
18900;BME280;9582;52.018;6.306;2023-02-14T11:29:46;103233.78;;;9.57;100.00
18900;BME280;9582;52.018;6.306;2023-02-14T11:32:21;103223.34;;;9.65;100.00
18900;BME280;9582;52.018;6.306;2023-02-14T11:34:52;103225.88;;;9.80;100.00
18900;BME280;9582;52.018;6.306;2023-02-14T11:37:26;103225.03;;;9.81;100.00
18900;BME280;9582;52.018;6.306;2023-02-14T11:39:58;103214.56;;;9.81;100.00
18900;BME280;9582;52.018;6.306;2023-02-14T11:42:37;103218.03;;;9.77;100.00
18900;BME280;9582;52.018;6.306;2023-02-14T11:45:27;103210.19;;;9.83;100.00
18900;BME280;9582;52.018;6.306;2023-02-14T11:48:08;103212.84;;;9.75;100.00
18900;BME280;9582;52.018;6.306;2023-02-14T11:51:04;103203.25;;;9.82;100.00
18900;BME280;9582;52.018;6.306;2023-02-14T11:53:44;103204.00;;;10.07;100.00
18900;BME280;9582;52.018;6.306;2023-02-14T11:56:13;103204.84;;;10.09;100.00
18900;BME280;9582;52.018;6.306;2023-02-14T11:58:48;103202.16;;;10.28;100.00
18900;BME280;9582;52.018;6.306;2023-02-14T12:01:25;103192.56;;;10.30;100.00
18900;BME280;9582;52.018;6.306;2023-02-14T12:03:58;103189.06;;;10.37;100.00
18900;BME280;9582;52.018;6.306;2023-02-14T12:06:31;103193.34;;;10.44;100.00
18900;BME280;9582;52.018;6.306;2023-02-14T12:09:24;103184.63;;;10.46;100.00
18900;BME280;9582;52.018;6.306;2023-02-14T12:11:53;103180.25;;;10.44;100.00
18900;BME280;9582;52.018;6.306;2023-02-14T12:14:21;103181.91;;;10.59;100.00
18900;BME280;9582;52.018;6.306;2023-02-14T12:16:57;103172.25;;;10.69;100.00
18900;BME280;9582;52.018;6.306;2023-02-14T12:19:39;103176.53;;;10.79;100.00
18900;BME280;9582;52.018;6.306;2023-02-14T12:22:12;103172.19;;;10.78;100.00
18900;BME280;9582;52.018;6.306;2023-02-14T12:24:58;103161.75;;;10.75;100.00
18900;BME280;9582;52.018;6.306;2023-02-14T12:27:35;103162.59;;;10.77;100.00
18900;BME280;9582;52.018;6.306;2023-02-14T12:30:11;103150.38;;;10.76;100.00
18900;BME280;9582;52.018;6.306;2023-02-14T12:32:49;103141.75;;;10.65;100.00
18900;BME280;9582;52.018;6.306;2023-02-14T12:35:35;103139.03;;;10.77;100.00
18900;BME280;9582;52.018;6.306;2023-02-14T12:38:09;103136.41;;;10.75;100.00
18900;BME280;9582;52.018;6.306;2023-02-14T12:40:49;103134.53;;;10.89;100.00
18900;BME280;9582;52.018;6.306;2023-02-14T12:43:30;103131.94;;;10.91;100.00
18900;BME280;9582;52.018;6.306;2023-02-14T12:46:17;103128.41;;;10.95;100.00
18900;BME280;9582;52.018;6.306;2023-02-14T12:49:02;103136.16;;;11.06;100.00
18900;BME280;9582;52.018;6.306;2023-02-14T12:51:38;103123.00;;;11.10;100.00
18900;BME280;9582;52.018;6.306;2023-02-14T12:54:31;103124.69;;;11.17;100.00
18900;BME280;9582;52.018;6.306;2023-02-14T12:57:12;103116.91;;;11.11;100.00
18900;BME280;9582;52.018;6.306;2023-02-14T12:59:51;103113.38;;;11.14;100.00
18900;BME280;9582;52.018;6.306;2023-02-14T13:05:46;103102.78;;;11.24;100.00
18900;BME280;9582;52.018;6.306;2023-02-14T13:08:38;103097.56;;;11.21;100.00
18900;BME280;9582;52.018;6.306;2023-02-14T13:11:14;103091.56;;;11.13;100.00
18900;BME280;9582;52.018;6.306;2023-02-14T13:13:55;103098.47;;;11.20;100.00
18900;BME280;9582;52.018;6.306;2023-02-14T13:16:33;103091.41;;;11.27;100.00
18900;BME280;9582;52.018;6.306;2023-02-14T13:19:16;103089.59;;;11.33;100.00
18900;BME280;9582;52.018;6.306;2023-02-14T13:21:47;103092.09;;;11.41;100.00
18900;BME280;9582;52.018;6.306;2023-02-14T13:24:27;103093.81;;;11.43;100.00
18900;BME280;9582;52.018;6.306;2023-02-14T13:26:59;103087.78;;;11.38;100.00
18900;BME280;9582;52.018;6.306;2023-02-14T13:29:29;103070.53;;;11.18;100.00
18900;BME280;9582;52.018;6.306;2023-02-14T13:32:04;103068.66;;;11.30;100.00
18900;BME280;9582;52.018;6.306;2023-02-14T13:34:32;103073.88;;;11.32;100.00
18900;BME280;9582;52.018;6.306;2023-02-14T13:37:05;103070.28;;;11.40;100.00
18900;BME280;9582;52.018;6.306;2023-02-14T13:39:40;103066.66;;;11.50;100.00
18900;BME280;9582;52.018;6.306;2023-02-14T13:42:09;103065.00;;;11.43;100.00
18900;BME280;9582;52.018;6.306;2023-02-14T13:44:46;103058.00;;;11.45;100.00
18900;BME280;9582;52.018;6.306;2023-02-14T13:47:21;103058.03;;;11.42;100.00
18900;BME280;9582;52.018;6.306;2023-02-14T13:49:54;103052.69;;;11.51;100.00
18900;BME280;9582;52.018;6.306;2023-02-14T13:52:39;103055.19;;;11.59;100.00